createdAt,value
2023-05-06T00:01:40.700Z,16.60
2023-05-06T00:04:44.574Z,16.64
2023-05-06T00:07:47.475Z,16.70
2023-05-06T00:10:50.243Z,16.68
2023-05-06T00:13:53.971Z,16.65
2023-05-06T00:16:56.527Z,16.71
2023-05-06T00:20:00.399Z,16.59
2023-05-06T00:23:03.057Z,16.52
2023-05-06T00:26:06.094Z,16.47
2023-05-06T00:29:08.770Z,16.39
2023-05-06T00:32:11.498Z,16.23
2023-05-06T00:35:15.532Z,16.06
2023-05-06T00:38:19.571Z,15.92
2023-05-06T00:41:22.416Z,15.81
2023-05-06T00:44:25.071Z,15.67
2023-05-06T00:47:27.787Z,15.67
2023-05-06T00:50:33.201Z,15.56
2023-05-06T00:53:35.858Z,15.44
2023-05-06T00:56:38.530Z,15.37
2023-05-06T00:59:41.267Z,15.37
2023-05-06T01:02:47.558Z,15.40
2023-05-06T01:06:04.137Z,15.49
2023-05-06T01:09:14.629Z,15.60
2023-05-06T01:12:22.467Z,15.71
2023-05-06T01:15:30.258Z,15.79
2023-05-06T01:18:33.709Z,15.76
2023-05-06T01:21:37.880Z,15.75
2023-05-06T01:24:42.650Z,15.71
2023-05-06T01:27:45.152Z,15.64
2023-05-06T01:30:54.449Z,15.60
2023-05-06T01:34:06.681Z,15.66
2023-05-06T01:37:14.991Z,15.66
2023-05-06T01:40:19.199Z,15.62
2023-05-06T01:43:22.574Z,15.69
2023-05-06T01:46:25.999Z,15.76
2023-05-06T01:49:28.526Z,15.84
2023-05-06T01:52:31.213Z,15.87
2023-05-06T01:55:35.132Z,15.84
2023-05-06T01:58:38.310Z,15.87
2023-05-06T02:01:42.155Z,15.97
2023-05-06T02:04:45.016Z,16.03
2023-05-06T02:07:47.497Z,16.03
2023-05-06T02:10:51.414Z,16.02
2023-05-06T02:13:53.916Z,15.92
2023-05-06T02:16:56.429Z,15.91
2023-05-06T02:19:59.019Z,15.86
2023-05-06T02:23:01.597Z,15.82
2023-05-06T02:26:05.691Z,15.83
2023-05-06T02:29:08.185Z,15.89
2023-05-06T02:32:10.847Z,15.93
2023-05-06T02:35:13.341Z,15.90
2023-05-06T02:38:15.844Z,15.92
2023-05-06T02:41:19.663Z,15.97
2023-05-06T02:44:22.219Z,15.92
2023-05-06T02:47:25.209Z,15.97
2023-05-06T02:50:27.907Z,15.89
2023-05-06T02:53:30.504Z,15.80
2023-05-06T02:56:35.105Z,15.77
2023-05-06T02:59:37.869Z,15.75
2023-05-06T03:02:40.767Z,15.76
2023-05-06T03:05:43.326Z,15.79
2023-05-06T03:08:46.184Z,15.71
2023-05-06T03:11:50.232Z,15.78
2023-05-06T03:14:52.723Z,15.75
2023-05-06T03:17:55.346Z,15.68
2023-05-06T03:20:57.916Z,15.68
2023-05-06T03:24:00.946Z,15.61
2023-05-06T03:27:04.954Z,15.60
2023-05-06T03:30:09.500Z,15.54
2023-05-06T03:33:12.189Z,15.52
2023-05-06T03:36:15.077Z,15.50
2023-05-06T03:39:17.608Z,15.46
2023-05-06T03:42:21.599Z,15.45
2023-05-06T03:45:24.102Z,15.46
2023-05-06T03:48:26.754Z,15.42
2023-05-06T03:51:29.495Z,15.26
2023-05-06T03:54:32.065Z,15.03
2023-05-06T03:57:36.175Z,14.78
2023-05-06T04:00:39.044Z,14.61
2023-05-06T04:03:41.679Z,14.47
2023-05-06T04:06:44.977Z,14.40
2023-05-06T04:09:47.501Z,14.36
2023-05-06T04:12:52.279Z,14.22
2023-05-06T04:15:55.163Z,14.19
2023-05-06T04:18:59.027Z,14.21
2023-05-06T04:22:02.328Z,14.29
2023-05-06T04:25:05.392Z,14.28
2023-05-06T04:28:09.519Z,14.24
2023-05-06T04:31:12.212Z,14.23
2023-05-06T04:34:15.156Z,14.19
2023-05-06T04:37:18.867Z,14.17
2023-05-06T04:40:21.663Z,14.16
2023-05-06T04:43:26.471Z,14.19
2023-05-06T04:46:29.109Z,14.30
2023-05-06T04:49:31.687Z,14.39
2023-05-06T04:52:34.832Z,14.42
2023-05-06T04:55:37.318Z,14.44
2023-05-06T04:58:41.301Z,14.56
2023-05-06T05:01:44.025Z,14.56
2023-05-06T05:04:46.668Z,14.66
2023-05-06T05:07:49.223Z,14.79
2023-05-06T05:10:51.923Z,14.97
2023-05-06T05:13:57.405Z,14.98
2023-05-06T05:17:00.753Z,15.12
2023-05-06T05:20:04.774Z,15.27
2023-05-06T05:23:07.367Z,15.40
2023-05-06T05:26:09.887Z,15.50
2023-05-06T05:29:14.227Z,15.67
2023-05-06T05:32:17.082Z,15.79
2023-05-06T05:35:19.807Z,15.98
2023-05-06T05:38:23.512Z,16.15
2023-05-06T05:41:26.855Z,16.40
2023-05-06T05:44:31.245Z,16.48
2023-05-06T05:47:33.834Z,16.62
2023-05-06T05:50:36.451Z,16.82
2023-05-06T05:53:39.078Z,16.97
2023-05-06T05:56:41.721Z,17.13
2023-05-06T05:59:45.692Z,17.36
2023-05-06T06:02:48.378Z,17.51
2023-05-06T06:05:52.865Z,17.68
2023-05-06T06:08:55.574Z,17.99
2023-05-06T06:11:58.225Z,18.29
2023-05-06T06:15:02.346Z,18.45
2023-05-06T06:18:05.332Z,18.54
2023-05-06T06:21:07.947Z,18.61
2023-05-06T06:24:10.480Z,18.89
2023-05-06T06:27:13.157Z,19.16
2023-05-06T06:30:17.294Z,19.46
2023-05-06T06:33:19.916Z,19.63
2023-05-06T06:36:22.683Z,19.90
2023-05-06T06:39:25.871Z,20.21
2023-05-06T06:42:28.475Z,19.98
2023-05-06T06:45:32.493Z,20.03
2023-05-06T06:48:35.853Z,19.89
2023-05-06T06:51:38.372Z,20.11
2023-05-06T06:54:41.228Z,20.16
2023-05-06T06:57:43.838Z,20.28
2023-05-06T07:00:47.853Z,20.57
2023-05-06T07:03:50.827Z,20.43
2023-05-06T07:06:53.764Z,20.49
2023-05-06T07:09:56.396Z,20.53
2023-05-06T07:12:59.185Z,20.52
2023-05-06T07:16:03.109Z,20.57
2023-05-06T07:19:05.658Z,19.90
2023-05-06T07:22:08.835Z,19.68
2023-05-06T07:25:11.670Z,19.47
2023-05-06T07:28:15.610Z,19.76
2023-05-06T07:31:21.036Z,20.09
2023-05-06T07:34:23.707Z,21.06
2023-05-06T07:37:26.215Z,21.71
2023-05-06T07:40:29.032Z,21.78
2023-05-06T07:43:31.826Z,21.08
2023-05-06T07:46:36.239Z,20.36
2023-05-06T07:49:40.728Z,20.33
2023-05-06T07:52:43.739Z,20.33
2023-05-06T07:55:46.708Z,20.71
2023-05-06T07:58:50.118Z,20.99
2023-05-06T08:01:54.309Z,21.80
2023-05-06T08:04:57.107Z,22.81
2023-05-06T08:08:00.336Z,22.86
2023-05-06T08:11:03.185Z,22.90
2023-05-06T08:14:05.948Z,23.22
2023-05-06T08:17:09.948Z,23.70
2023-05-06T08:20:14.412Z,23.92
2023-05-06T08:23:17.089Z,23.44
2023-05-06T08:26:19.829Z,23.27
2023-05-06T08:29:22.552Z,23.18
2023-05-06T08:32:26.867Z,23.35
2023-05-06T08:35:29.642Z,23.55
2023-05-06T08:38:32.524Z,23.42
2023-05-06T08:41:35.173Z,23.57
2023-05-06T08:44:38.132Z,23.77
2023-05-06T08:47:42.587Z,24.51
2023-05-06T08:50:45.673Z,24.97
2023-05-06T08:53:48.841Z,24.92
2023-05-06T08:56:54.230Z,24.28
2023-05-06T08:59:57.005Z,24.13
2023-05-06T09:03:01.756Z,22.86
2023-05-06T09:06:04.952Z,22.83
2023-05-06T09:09:07.381Z,22.69
2023-05-06T09:12:11.509Z,22.93
2023-05-06T09:15:14.520Z,23.74
2023-05-06T09:18:18.637Z,23.90
2023-05-06T09:21:21.366Z,24.17
2023-05-06T09:24:25.220Z,24.52
2023-05-06T09:27:29.645Z,24.22
2023-05-06T09:30:32.155Z,25.06
2023-05-06T09:33:37.282Z,25.47
2023-05-06T09:36:40.129Z,26.11
2023-05-06T09:39:42.711Z,26.66
2023-05-06T09:42:45.708Z,25.51
2023-05-06T09:45:48.261Z,24.55
2023-05-06T09:48:53.040Z,24.61
2023-05-06T09:51:57.729Z,24.73
2023-05-06T09:55:00.535Z,24.74
2023-05-06T09:58:04.724Z,24.36
2023-05-06T10:01:09.006Z,24.78
2023-05-06T10:04:14.468Z,25.19
2023-05-06T10:07:19.652Z,26.15
2023-05-06T10:10:25.300Z,26.16
2023-05-06T10:13:28.327Z,25.99
2023-05-06T10:16:31.232Z,25.39
2023-05-06T10:19:35.293Z,25.33
2023-05-06T10:22:42.828Z,24.88
2023-05-06T10:25:47.891Z,24.78
2023-05-06T10:28:53.216Z,25.09
2023-05-06T10:31:57.668Z,24.47
2023-05-06T10:35:09.655Z,24.75
2023-05-06T10:38:16.442Z,24.94
2023-05-06T10:41:21.191Z,25.47
2023-05-06T10:44:57.394Z,25.60
2023-05-06T10:48:12.816Z,24.97
2023-05-06T10:51:24.774Z,25.45
2023-05-06T10:54:27.742Z,25.78
2023-05-06T10:57:31.051Z,26.31
2023-05-06T11:00:34.944Z,26.00
2023-05-06T11:03:37.720Z,26.30
2023-05-06T11:06:43.107Z,26.47
2023-05-06T11:09:55.840Z,26.18
2023-05-06T11:12:58.632Z,25.86
2023-05-06T11:16:02.539Z,25.77
2023-05-06T11:19:06.716Z,26.24
2023-05-06T11:22:39.396Z,26.20
2023-05-06T11:25:43.518Z,26.03
2023-05-06T11:28:47.943Z,25.83
2023-05-06T11:31:50.909Z,26.03
2023-05-06T11:34:55.438Z,26.15
2023-05-06T11:37:59.414Z,25.14
2023-05-06T11:41:02.158Z,25.47
2023-05-06T11:44:04.817Z,26.25
2023-05-06T11:47:08.678Z,26.36
2023-05-06T11:50:12.124Z,26.32
2023-05-06T11:53:18.958Z,26.82
2023-05-06T11:56:21.781Z,27.22
2023-05-06T11:59:30.194Z,28.12
2023-05-06T12:02:32.819Z,28.69
2023-05-06T12:05:35.558Z,28.89
2023-05-06T12:08:39.684Z,28.30
2023-05-06T12:11:44.883Z,28.42
2023-05-06T12:14:47.956Z,28.34
2023-05-06T12:17:50.470Z,28.95
2023-05-06T12:20:54.438Z,29.05
2023-05-06T12:23:59.313Z,28.68
2023-05-06T12:27:01.844Z,28.28
2023-05-06T12:30:04.877Z,28.74
2023-05-06T12:33:07.942Z,29.30
2023-05-06T12:36:10.720Z,29.35
2023-05-06T12:39:14.798Z,30.04
2023-05-06T12:42:20.447Z,29.94
2023-05-06T12:45:23.458Z,29.85
2023-05-06T12:48:25.844Z,30.70
2023-05-06T12:51:28.875Z,32.58
2023-05-06T12:54:32.743Z,35.83
2023-05-06T12:57:35.733Z,34.75
2023-05-06T13:00:38.373Z,34.03
2023-05-06T13:03:41.319Z,34.38
2023-05-06T13:06:43.968Z,34.58
2023-05-06T13:09:48.243Z,34.07
2023-05-06T13:12:50.648Z,32.61
2023-05-06T13:15:53.679Z,33.79
2023-05-06T13:18:56.181Z,37.30
2023-05-06T13:21:58.871Z,38.43
2023-05-06T13:25:03.255Z,38.27
2023-05-06T13:28:05.988Z,37.33
2023-05-06T13:31:08.791Z,38.05
2023-05-06T13:34:11.733Z,39.33
2023-05-06T13:37:14.226Z,38.89
2023-05-06T13:40:18.136Z,37.59
2023-05-06T13:43:20.704Z,40.14
2023-05-06T13:46:23.258Z,38.53
2023-05-06T13:49:25.875Z,35.66
2023-05-06T13:52:28.398Z,36.47
2023-05-06T13:55:32.706Z,37.05
2023-05-06T13:58:35.505Z,40.57
2023-05-06T14:01:38.149Z,42.64
2023-05-06T14:04:40.721Z,43.35
2023-05-06T14:07:43.369Z,44.54
2023-05-06T14:10:47.519Z,46.18
2023-05-06T14:13:49.937Z,45.42
2023-05-06T14:16:54.583Z,45.59
2023-05-06T14:19:57.027Z,43.12
2023-05-06T14:22:59.453Z,43.03
2023-05-06T14:26:03.390Z,40.99
2023-05-06T14:29:05.753Z,39.66
2023-05-06T14:32:08.391Z,41.62
2023-05-06T14:35:11.730Z,42.19
2023-05-06T14:38:14.484Z,42.99
2023-05-06T14:41:18.645Z,42.18
2023-05-06T14:44:21.152Z,43.37
2023-05-06T14:47:23.682Z,42.46
2023-05-06T14:50:26.270Z,43.11
2023-05-06T14:53:29.000Z,39.89
2023-05-06T14:56:32.740Z,38.83
2023-05-06T14:59:35.613Z,39.93
2023-05-06T15:02:40.507Z,41.37
2023-05-06T15:05:43.170Z,39.65
2023-05-06T15:08:45.999Z,40.19
2023-05-06T15:11:50.442Z,40.72
2023-05-06T15:14:52.808Z,41.87
2023-05-06T15:17:55.591Z,40.73
2023-05-06T15:21:02.247Z,41.09
2023-05-06T15:24:04.914Z,40.92
2023-05-06T15:27:09.240Z,40.36
2023-05-06T15:30:12.141Z,38.99
2023-05-06T15:33:14.982Z,38.67
2023-05-06T15:36:17.848Z,38.05
2023-05-06T15:39:20.381Z,37.83
2023-05-06T15:42:24.560Z,36.78
2023-05-06T15:45:27.202Z,37.37
2023-05-06T15:48:30.097Z,37.42
2023-05-06T15:51:32.556Z,39.06
2023-05-06T15:54:37.545Z,39.11
2023-05-06T15:57:42.971Z,38.04
2023-05-06T16:00:45.504Z,39.54
2023-05-06T16:03:48.188Z,38.92
2023-05-06T16:06:51.362Z,37.19
2023-05-06T16:09:53.795Z,37.18
2023-05-06T16:12:57.767Z,37.51
2023-05-06T16:16:01.569Z,35.10
2023-05-06T16:19:04.404Z,34.53
2023-05-06T16:22:06.730Z,33.83
2023-05-06T16:25:09.626Z,33.64
2023-05-06T16:28:13.434Z,34.10
2023-05-06T16:31:16.166Z,35.02
2023-05-06T16:34:18.823Z,37.13
2023-05-06T16:37:21.259Z,36.88
2023-05-06T16:40:23.755Z,36.40
2023-05-06T16:43:28.046Z,33.91
2023-05-06T16:46:30.681Z,32.15
2023-05-06T16:49:33.891Z,30.83
2023-05-06T16:52:36.514Z,30.62
2023-05-06T16:55:39.721Z,30.62
2023-05-06T16:58:43.573Z,30.15
2023-05-06T17:01:46.177Z,29.65
2023-05-06T17:04:48.621Z,29.51
2023-05-06T17:07:51.328Z,29.25
2023-05-06T17:10:54.517Z,28.68
2023-05-06T17:13:58.633Z,27.94
2023-05-06T17:17:04.083Z,27.35
2023-05-06T17:20:07.239Z,26.55
2023-05-06T17:23:09.718Z,25.91
2023-05-06T17:26:12.480Z,25.57
2023-05-06T17:29:16.402Z,25.36
2023-05-06T17:32:19.877Z,25.13
2023-05-06T17:35:22.740Z,24.95
2023-05-06T17:38:26.015Z,24.76
2023-05-06T17:41:28.836Z,24.57
2023-05-06T17:44:33.086Z,24.50
2023-05-06T17:47:35.980Z,24.30
2023-05-06T17:50:38.812Z,24.07
2023-05-06T17:53:41.566Z,23.91
2023-05-06T17:56:49.057Z,23.93
2023-05-06T17:59:52.957Z,23.84
2023-05-06T18:02:56.553Z,23.67
2023-05-06T18:05:59.981Z,23.51
2023-05-06T18:09:02.374Z,23.32
2023-05-06T18:12:05.147Z,23.17
2023-05-06T18:15:10.159Z,22.93
2023-05-06T18:18:12.805Z,22.76
2023-05-06T18:21:15.498Z,22.63
2023-05-06T18:24:18.258Z,22.39
2023-05-06T18:27:20.880Z,22.15
2023-05-06T18:30:24.754Z,21.96
2023-05-06T18:33:27.860Z,21.72
2023-05-06T18:36:31.006Z,21.54
2023-05-06T18:39:33.487Z,21.38
2023-05-06T18:42:35.983Z,21.13
2023-05-06T18:45:39.853Z,20.95
2023-05-06T18:48:42.303Z,20.75
2023-05-06T18:51:44.681Z,20.49
2023-05-06T18:54:47.248Z,20.36
2023-05-06T18:57:50.247Z,20.13
2023-05-06T19:00:55.618Z,20.05
2023-05-06T19:03:58.140Z,20.02
2023-05-06T19:07:01.286Z,19.97
2023-05-06T19:10:03.974Z,19.78
2023-05-06T19:13:07.444Z,19.68
2023-05-06T19:16:11.514Z,19.64
2023-05-06T19:19:14.118Z,19.63
2023-05-06T19:22:17.029Z,19.61
2023-05-06T19:25:21.253Z,19.49
2023-05-06T19:28:23.780Z,19.43
2023-05-06T19:31:27.882Z,19.37
2023-05-06T19:34:30.378Z,19.24
2023-05-06T19:37:35.306Z,19.19
2023-05-06T19:40:37.689Z,19.22
2023-05-06T19:43:43.705Z,19.20
2023-05-06T19:46:47.698Z,19.17
2023-05-06T19:49:51.322Z,19.02
2023-05-06T19:52:53.800Z,18.98
2023-05-06T19:55:57.942Z,18.95
2023-05-06T19:59:00.397Z,18.75
2023-05-06T20:02:04.496Z,18.73
2023-05-06T20:05:07.445Z,18.61
2023-05-06T20:08:11.171Z,18.51
2023-05-06T20:11:13.617Z,18.42
2023-05-06T20:14:16.153Z,18.41
2023-05-06T20:17:20.279Z,18.34
2023-05-06T20:20:23.063Z,18.38
2023-05-06T20:23:25.949Z,18.29
2023-05-06T20:26:28.296Z,18.21
2023-05-06T20:29:30.810Z,18.07
2023-05-06T20:32:34.938Z,18.02
2023-05-06T20:35:40.347Z,17.95
2023-05-06T20:38:42.753Z,17.88
2023-05-06T20:41:45.332Z,17.82
2023-05-06T20:44:47.744Z,17.64
2023-05-06T20:47:51.575Z,17.68
2023-05-06T20:50:54.823Z,17.60
2023-05-06T20:53:58.320Z,17.58
2023-05-06T20:57:02.545Z,17.51
2023-05-06T21:00:07.375Z,17.37
2023-05-06T21:03:11.287Z,17.36
2023-05-06T21:06:13.896Z,17.30
2023-05-06T21:09:16.370Z,17.18
2023-05-06T21:12:18.716Z,17.14
2023-05-06T21:15:21.152Z,17.13
2023-05-06T21:18:25.139Z,17.08
2023-05-06T21:21:30.111Z,16.98
2023-05-06T21:24:32.560Z,16.94
2023-05-06T21:27:35.041Z,17.00
2023-05-06T21:30:37.694Z,16.96
2023-05-06T21:33:41.693Z,16.78
2023-05-06T21:36:44.086Z,16.72
2023-05-06T21:39:46.458Z,16.73
2023-05-06T21:42:48.837Z,16.71
2023-05-06T21:45:51.226Z,16.65
2023-05-06T21:48:54.878Z,16.55
2023-05-06T21:51:57.395Z,16.52
2023-05-06T21:55:00.437Z,16.45
2023-05-06T21:58:02.783Z,16.44
2023-05-06T22:01:05.163Z,16.42
2023-05-06T22:04:12.654Z,16.40
2023-05-06T22:07:15.157Z,16.37
2023-05-06T22:10:17.519Z,16.33
2023-05-06T22:13:20.081Z,16.17
2023-05-06T22:16:22.619Z,16.03
2023-05-06T22:19:26.581Z,15.98
2023-05-06T22:22:28.977Z,16.01
2023-05-06T22:25:31.333Z,15.92
2023-05-06T22:28:33.772Z,15.90
2023-05-06T22:31:36.522Z,15.89
2023-05-06T22:34:40.565Z,15.91
2023-05-06T22:37:43.123Z,15.89
2023-05-06T22:40:45.627Z,15.92
2023-05-06T22:43:48.012Z,15.93
2023-05-06T22:46:50.501Z,15.89
2023-05-06T22:49:54.587Z,15.86
2023-05-06T22:52:57.130Z,15.86
2023-05-06T22:55:59.812Z,15.85
2023-05-06T22:59:02.228Z,15.72
2023-05-06T23:02:04.761Z,15.62
2023-05-06T23:05:09.171Z,15.65
2023-05-06T23:08:11.925Z,15.54
2023-05-06T23:11:14.252Z,15.40
2023-05-06T23:14:17.319Z,15.33
2023-05-06T23:17:19.701Z,15.32
2023-05-06T23:20:23.558Z,15.38
2023-05-06T23:23:26.088Z,15.46
2023-05-06T23:26:28.854Z,15.49
2023-05-06T23:29:31.391Z,15.61
2023-05-06T23:32:33.845Z,15.74
2023-05-06T23:35:37.703Z,15.92
2023-05-06T23:38:40.120Z,16.01
2023-05-06T23:41:42.912Z,16.08
2023-05-06T23:44:45.442Z,16.14
2023-05-06T23:47:48.063Z,16.17
2023-05-06T23:50:51.975Z,16.18
2023-05-06T23:53:54.636Z,16.20
2023-05-06T23:56:57.252Z,16.13
2023-05-06T23:59:59.872Z,16.04
